createdAt,value
2023-02-27T00:00:15.113Z,0.70
2023-02-27T00:05:37.049Z,0.60
2023-02-27T00:10:58.793Z,0.57
2023-02-27T00:16:20.659Z,0.30
2023-02-27T00:21:44.688Z,0.68
2023-02-27T00:27:06.474Z,0.60
2023-02-27T00:32:29.527Z,0.43
2023-02-27T00:37:51.301Z,0.55
2023-02-27T00:43:13.012Z,0.43
2023-02-27T00:48:34.688Z,0.40
2023-02-27T00:53:56.741Z,0.52
2023-02-27T00:59:18.563Z,0.70
2023-02-27T01:04:40.591Z,0.50
2023-02-27T01:10:02.317Z,0.40
2023-02-27T01:15:24.005Z,0.60
2023-02-27T01:20:45.705Z,0.40
2023-02-27T01:26:08.194Z,0.50
2023-02-27T01:31:30.098Z,0.50
2023-02-27T01:36:51.912Z,0.40
2023-02-27T01:42:28.424Z,0.40
2023-02-27T01:47:56.365Z,0.60
2023-02-27T01:53:20.363Z,0.45
2023-02-27T01:58:43.528Z,0.30
2023-02-27T02:04:11.413Z,0.25
2023-02-27T02:09:36.438Z,0.55
2023-02-27T02:14:58.303Z,0.90
2023-02-27T02:20:43.109Z,0.30
2023-02-27T02:26:25.012Z,0.40
2023-02-27T02:32:08.054Z,0.40
2023-02-27T02:37:41.530Z,0.40
2023-02-27T02:43:12.570Z,0.35
2023-02-27T02:48:53.124Z,0.38
2023-02-27T02:54:43.946Z,0.30
2023-02-27T03:00:30.238Z,0.50
2023-02-27T03:06:11.900Z,0.30
2023-02-27T03:11:39.462Z,0.30
2023-02-27T03:17:08.060Z,0.50
2023-02-27T03:22:34.726Z,0.30
2023-02-27T03:28:06.180Z,0.50
2023-02-27T03:33:36.396Z,0.43
2023-02-27T03:39:11.762Z,0.40
2023-02-27T03:44:41.530Z,0.33
2023-02-27T03:50:03.543Z,0.40
2023-02-27T03:55:39.128Z,0.40
2023-02-27T04:01:00.942Z,0.40
2023-02-27T04:06:42.934Z,0.50
2023-02-27T04:12:27.023Z,0.50
2023-02-27T04:18:29.849Z,0.52
2023-02-27T04:24:17.413Z,0.73
2023-02-27T04:29:51.180Z,0.55
2023-02-27T04:35:20.920Z,0.65
2023-02-27T04:40:52.887Z,0.40
2023-02-27T04:46:17.466Z,0.50
2023-02-27T04:52:10.929Z,0.57
2023-02-27T04:57:38.818Z,0.43
2023-02-27T05:03:11.163Z,0.50
2023-02-27T05:09:09.290Z,0.40
2023-02-27T05:14:31.046Z,0.40
2023-02-27T05:19:53.018Z,0.50
2023-02-27T05:25:48.493Z,0.45
2023-02-27T05:31:18.606Z,0.38
2023-02-27T05:36:57.465Z,0.40
2023-02-27T05:42:28.880Z,0.50
2023-02-27T05:48:01.056Z,0.40
2023-02-27T05:53:28.596Z,0.22
2023-02-27T05:59:17.681Z,0.30
2023-02-27T06:04:40.557Z,0.50
2023-02-27T06:10:02.580Z,0.30
2023-02-27T06:15:24.459Z,0.52
2023-02-27T06:20:47.359Z,0.40
2023-02-27T06:26:13.926Z,0.50
2023-02-27T06:31:35.794Z,0.40
2023-02-27T06:36:57.848Z,0.70
2023-02-27T06:42:19.617Z,0.52
2023-02-27T06:47:42.489Z,0.75
2023-02-27T06:53:04.512Z,0.80
2023-02-27T06:58:26.331Z,1.30
2023-02-27T07:03:48.231Z,1.00
2023-02-27T07:09:10.190Z,0.90
2023-02-27T07:14:32.739Z,0.95
2023-02-27T07:19:54.800Z,0.82
2023-02-27T07:25:16.678Z,1.08
2023-02-27T07:30:39.175Z,1.00
2023-02-27T07:36:01.143Z,1.13
2023-02-27T07:41:30.259Z,0.93
2023-02-27T07:46:52.696Z,0.90
2023-02-27T07:52:14.639Z,0.90
2023-02-27T07:57:36.438Z,0.90
2023-02-27T08:02:58.173Z,0.90
2023-02-27T08:08:19.959Z,1.10
2023-02-27T08:13:59.438Z,0.90
2023-02-27T08:19:22.081Z,1.05
2023-02-27T08:24:43.883Z,1.05
2023-02-27T08:30:07.735Z,1.17
2023-02-27T08:35:29.923Z,1.00
2023-02-27T08:40:55.694Z,0.80
2023-02-27T08:46:17.504Z,1.30
2023-02-27T08:51:39.392Z,1.48
2023-02-27T08:57:01.117Z,1.00
2023-02-27T09:02:26.975Z,1.27
2023-02-27T09:07:49.196Z,1.00
2023-02-27T09:13:10.930Z,1.15
2023-02-27T09:18:32.759Z,1.10
2023-02-27T09:23:55.165Z,1.25
2023-02-27T09:29:17.373Z,1.13
2023-02-27T09:34:39.048Z,1.15
2023-02-27T09:40:01.186Z,0.95
2023-02-27T09:45:26.299Z,0.95
2023-02-27T09:50:49.860Z,1.20
2023-02-27T09:56:22.518Z,1.00
2023-02-27T10:01:52.692Z,0.90
2023-02-27T10:07:23.286Z,1.08
2023-02-27T10:13:15.038Z,1.10
2023-02-27T10:19:02.546Z,1.30
2023-02-27T10:24:37.294Z,1.02
2023-02-27T10:30:28.302Z,1.08
2023-02-27T10:35:55.186Z,1.15
2023-02-27T10:41:19.898Z,0.88
2023-02-27T10:46:42.080Z,0.83
2023-02-27T10:52:14.375Z,0.90
2023-02-27T10:57:42.460Z,0.95
2023-02-27T11:03:05.129Z,0.75
2023-02-27T11:08:32.728Z,0.80
2023-02-27T11:13:57.262Z,1.00
2023-02-27T11:19:40.216Z,0.57
2023-02-27T11:25:19.995Z,1.13
2023-02-27T11:30:43.794Z,0.50
2023-02-27T11:36:06.676Z,0.70
2023-02-27T11:41:33.824Z,0.80
2023-02-27T11:47:16.074Z,0.60
2023-02-27T11:53:04.427Z,0.60
2023-02-27T11:58:30.890Z,0.50
2023-02-27T12:04:02.934Z,0.70
2023-02-27T12:09:54.074Z,0.50
2023-02-27T12:15:26.649Z,0.40
2023-02-27T12:21:26.073Z,0.50
2023-02-27T12:26:51.066Z,0.73
2023-02-27T12:32:32.013Z,0.50
2023-02-27T12:37:54.234Z,0.32
2023-02-27T12:43:21.582Z,0.40
2023-02-27T12:49:12.511Z,0.40
2023-02-27T12:55:05.320Z,0.50
2023-02-27T13:00:33.122Z,0.47
2023-02-27T13:06:01.899Z,0.38
2023-02-27T13:11:59.217Z,0.40
2023-02-27T13:17:29.675Z,0.60
2023-02-27T13:23:06.345Z,0.57
2023-02-27T13:28:29.758Z,0.40
2023-02-27T13:34:06.691Z,0.40
2023-02-27T13:39:49.699Z,0.57
2023-02-27T13:45:50.593Z,0.77
2023-02-27T13:51:37.613Z,0.50
2023-02-27T13:56:59.257Z,0.60
2023-02-27T14:02:56.447Z,0.50
2023-02-27T14:08:23.403Z,0.50
2023-02-27T14:13:51.239Z,0.50
2023-02-27T14:19:15.815Z,0.30
2023-02-27T14:24:59.957Z,0.50
2023-02-27T14:30:41.024Z,0.38
2023-02-27T14:36:08.057Z,0.50
2023-02-27T14:41:51.649Z,0.45
2023-02-27T14:47:24.319Z,0.40
2023-02-27T14:52:46.171Z,0.43
2023-02-27T14:58:07.834Z,0.47
2023-02-27T15:03:40.390Z,0.47
2023-02-27T15:09:02.890Z,0.40
2023-02-27T15:14:32.013Z,0.47
2023-02-27T15:19:56.599Z,0.60
2023-02-27T15:25:38.624Z,0.50
2023-02-27T15:31:00.617Z,0.25
2023-02-27T15:36:29.445Z,0.43
2023-02-27T15:41:56.832Z,0.43
2023-02-27T15:47:39.306Z,0.50
2023-02-27T15:53:21.297Z,0.50
2023-02-27T15:58:50.865Z,0.60
2023-02-27T16:04:22.544Z,0.73
2023-02-27T16:09:48.027Z,0.60
2023-02-27T16:15:39.029Z,0.50
2023-02-27T16:21:33.898Z,0.65
2023-02-27T16:26:55.885Z,0.50
2023-02-27T16:32:39.118Z,0.63
2023-02-27T16:38:02.496Z,0.63
2023-02-27T16:43:24.251Z,0.40
2023-02-27T16:49:04.539Z,0.50
2023-02-27T16:54:32.322Z,0.40
2023-02-27T16:59:54.337Z,0.50
2023-02-27T17:05:16.522Z,0.90
2023-02-27T17:10:38.498Z,0.65
2023-02-27T17:16:00.733Z,1.17
2023-02-27T17:21:22.463Z,1.30
2023-02-27T17:26:44.620Z,1.40
2023-02-27T17:32:06.789Z,1.58
2023-02-27T17:37:28.799Z,1.73
2023-02-27T17:42:50.614Z,1.48
2023-02-27T17:48:12.958Z,1.20
2023-02-27T17:53:35.813Z,1.10
2023-02-27T17:58:57.896Z,1.30
2023-02-27T18:04:19.560Z,1.13
2023-02-27T18:09:41.674Z,1.42
2023-02-27T18:15:04.525Z,1.20
2023-02-27T18:20:26.261Z,1.45
2023-02-27T18:25:54.431Z,1.30
2023-02-27T18:31:27.816Z,1.35
2023-02-27T18:36:49.759Z,1.63
2023-02-27T18:42:11.563Z,1.83
2023-02-27T18:47:33.274Z,1.40
2023-02-27T18:52:56.334Z,1.15
2023-02-27T18:58:18.099Z,1.92
2023-02-27T19:03:39.810Z,1.35
2023-02-27T19:09:03.733Z,1.60
2023-02-27T19:14:26.138Z,1.30
2023-02-27T19:19:48.119Z,1.35
2023-02-27T19:25:10.304Z,1.60
2023-02-27T19:30:32.216Z,1.48
2023-02-27T19:35:54.012Z,1.48
2023-02-27T19:41:17.129Z,1.60
2023-02-27T19:46:41.172Z,1.00
2023-02-27T19:52:03.567Z,0.80
2023-02-27T19:57:25.311Z,0.98
2023-02-27T20:02:47.964Z,0.90
2023-02-27T20:08:09.661Z,1.00
2023-02-27T20:13:31.516Z,1.30
2023-02-27T20:18:53.832Z,1.42
2023-02-27T20:24:16.634Z,1.20
2023-02-27T20:29:38.453Z,0.80
2023-02-27T20:35:00.188Z,1.10
2023-02-27T20:40:21.963Z,0.70
2023-02-27T20:45:43.819Z,0.68
2023-02-27T20:51:11.251Z,1.00
2023-02-27T20:56:38.535Z,0.75
2023-02-27T21:02:00.297Z,0.75
2023-02-27T21:07:22.694Z,0.77
2023-02-27T21:12:45.481Z,1.10
2023-02-27T21:18:07.330Z,1.10
2023-02-27T21:23:29.090Z,1.23
2023-02-27T21:28:56.628Z,1.08
2023-02-27T21:34:27.437Z,1.08
2023-02-27T21:39:52.594Z,1.10
2023-02-27T21:45:14.542Z,1.20
2023-02-27T21:50:36.791Z,0.90
2023-02-27T21:56:07.339Z,0.80
2023-02-27T22:01:30.908Z,1.02
2023-02-27T22:06:52.805Z,0.85
2023-02-27T22:12:16.143Z,0.85
2023-02-27T22:17:38.063Z,0.60
2023-02-27T22:23:02.003Z,0.85
2023-02-27T22:28:23.784Z,0.80
2023-02-27T22:33:48.054Z,0.95
2023-02-27T22:39:11.002Z,0.80
2023-02-27T22:44:32.742Z,0.93
2023-02-27T22:49:54.586Z,1.05
2023-02-27T22:55:16.364Z,0.88
2023-02-27T23:00:38.175Z,1.08
2023-02-27T23:06:00.239Z,1.08
2023-02-27T23:11:22.053Z,1.00
2023-02-27T23:16:46.979Z,1.10
2023-02-27T23:22:09.008Z,1.23
2023-02-27T23:27:31.113Z,1.00
2023-02-27T23:32:53.034Z,1.10
2023-02-27T23:38:14.797Z,1.35
2023-02-27T23:43:36.720Z,1.10
2023-02-27T23:48:59.461Z,1.15
2023-02-27T23:54:21.150Z,1.10
2023-02-27T23:59:43.175Z,1.15
